Gorgoypikoos — 9HA3669 — position and weather

sailwx.info

Track history (hours):
 
Tides and Currents Weather Stations Pressure Air Temp Water Temp Dewpoint Dewpoint Depression Visibility Wind Speed Wind Dir Waves Ship Positions

Gorgoypikoos

Last reported at 2017-Dec-17 16:00 UTC. Time now 2017-Dec-17 16:05 UTC.
Position N 41°35' E 140°47'.

Length 225 m; draft 13.1 m.

Type: Cargo ship. MMSI: 229859000.

Date/timePositionNaut miles runAvg speedWind from/ knotsBaromVisibWave heightAir tempDewpointWater temp
2017-Dec-17 16:00N 41°35' E 140°47'4 7.8
2017-Dec-17 15:30N 41°38' E 140°51'3 6.8
2017-Dec-17 15:00N 41°40' E 140°55'3 6.5
2017-Dec-17 14:30N 41°39' E 140°59'3 6.7
2017-Dec-17 14:00N 41°39' E 141°03'4 8.4
2017-Dec-17 13:30N 41°39' E 141°09'5 9.3
2017-Dec-17 13:00N 41°40' E 141°15'510.5
2017-Dec-17 12:30N 41°40' E 141°22'5 9.9
2017-Dec-17 12:00N 41°41' E 141°29'4 9.0
2017-Dec-17 11:30N 41°41' E 141°35'5 8.8
2017-Dec-17 10:58N 41°41' E 141°41'  
Track history (hours):
 
Tides and Currents Weather Stations Pressure Air Temp Water Temp Dewpoint Dewpoint Depression Visibility Wind Speed Wind Dir Waves Ship Positions

Gorgoypikoos

Last reported at 2017-Dec-17 16:00 UTC. Time now 2017-Dec-17 16:05 UTC.
Position N 41°35' E 140°47'.

Length 225 m; draft 13.1 m.

Type: Cargo ship. MMSI: 229859000.

Date/timePositionNaut miles runAvg speedWind from/ knotsBaromVisibWave heightAir tempDewpointWater temp
2017-Dec-17 16:00N 41°35' E 140°47'4 7.8
2017-Dec-17 15:30N 41°38' E 140°51'3 6.8
2017-Dec-17 15:00N 41°40' E 140°55'3 6.5
2017-Dec-17 14:30N 41°39' E 140°59'3 6.7
2017-Dec-17 14:00N 41°39' E 141°03'4 8.4
2017-Dec-17 13:30N 41°39' E 141°09'5 9.3
2017-Dec-17 13:00N 41°40' E 141°15'510.5
2017-Dec-17 12:30N 41°40' E 141°22'5 9.9
2017-Dec-17 12:00N 41°41' E 141°29'4 9.0
2017-Dec-17 11:30N 41°41' E 141°35'5 8.8
2017-Dec-17 10:58N 41°41' E 141°41'  

Dump ship's entire track history